Terminal Aerodrome Forecast
Issued by NWS Lake Charles, LA

Home | Current Version | Previous Version | Text Only | Print | Product List | Glossary On
Versions: 1 2 3 4 5 6 7 8 9 10 11 12 13 14 15
000
FTUS44 KLCH 181700
TAFARA
TAF
KARA 181735Z 1818/1918 12006KT P6SM VCSH SCT040 OVC100
     FM182000 10006KT P6SM VCSH SCT012 OVC040
      TEMPO 1820/1824 BKN012 OVC040
     FM190200 06004KT 6SM BR VCSH OVC009
     FM191000 06007KT 5SM -RA OVC006
      TEMPO 1911/1914 2SM RA SCT006 OVC015
     FM191400 04008KT 3SM RA OVC005=

USA.gov is the U.S. government's official web portal to all federal, state and local government web resources and services.